DAA weather

Davison Army Air Field
Fort Belvoir, Virginia, United States

Public forecast

Using degrees Fahrenheit for public forecast. Weather courtesy of forecast.io.

Current aviation weather report (METAR) for Davison Army Air Field

Retrieved 2020/06/01 21:56 UTC (60 minutes ago):

KDAA 012156Z AUTO 31007KT 10SM CLR 24/03 A3017 RMK AO2 SLP219 T02410034 TSNO

Aviation forecast (TAF) for Davison Army Air Field

Retrieved 2020/06/01 17:06 UTC (6 hours ago):

TAF TAF KDAA 011700Z 0117/0223 35006KT 9999 FEW250 QNH2990INS TX24/0217Z TN12/0208Z